Ride Results

Wunderful Widgee (19-07-2009)
Ride distance: 80.0 km

Outcomes - Wunderful Widgee (19-07-2009)
Division No. of Entries Retired / DNE Completed Withdrawn Ineligible V/O Percentage Completed
HW 18 - 16 - - 2 88.89%
MW 31 - 21 1 - 9 67.74%
LW 24 - 19 2 - 3 79.17%
JN 13 - 11 - - 2 84.62%
Totals 86 - 67 3 - 16 77.91%
Results - Wunderful Widgee (19-07-2009)
No. Rider Horse Place Time Leg Speeds Total
Km/Hr
H/R bpm
Heavyweight
258 Olaf Lochtenberg Matta Mia Ademi 1 3:49:00 20.1, 21.8 20.96 34, 46, 57 (Avg:51)
256 Rod Strahan Shardell Azrark 2 (BC) 3:55:00 18.1, 23.3 20.43 32, 39, 40 (Avg:39)
290 Paul Lengronne Cherox Kariim 3 5:23:00 17.3, 12.9 14.86 35, 42, 47 (Avg:44)
266 Scott Barker Mystical Cynika 4 5:58:00 12.4, 14.5 13.41 39, 41, 46 (Avg:43)
203 Gregg Fields Dunwingeri Shahman 5 6:12:00 12.9, 12.8 12.90 38, 44, 52 (Avg:48)
245 Matthew Gadsby Follydown Gai Emerald 6 6:27:00 13.1, 11.7 12.40 33, 46, 50 (Avg:48)
284 Michael Chapman Touchwarr Kiara 7 6:30:00 12.9, 11.7 12.31 37, 47, 52 (Avg:49)
279 Greg Garred Shannonwood Sub 7 6:30:00 13.4, 11.3 12.31 38, 45, 49 (Avg:47)
278 Jaime Mansbridge Shannonwood Ezar 7 6:30:00 13.4, 11.3 12.31 30, 37, 45 (Avg:41)
260 David Grove Aloha Delphic 10 6:37:00 13.6, 10.8 12.09 33, 43, 48 (Avg:45)
240 Brian Maher Sundust Mynstral 11 6:58:00 12.1, 10.9 11.48 34, 43, 44 (Avg:43)
208 Irene Alletsgruber Chaswyk Ramazzotti 12 6:59:00 12.7, 10.3 11.46 26, 42, 42 (Avg:42)
206 Graham Ellison Chaswyck The Maverick 12 6:59:00 12.7, 10.3 11.46 30, 39, 45 (Avg:42)
209 Eva Levacsics Al Tivo 12 6:59:00 12.7, 10.3 11.46 33, 41, 47 (Avg:44)
215 Derek Armitage Burralga Maverick 15 7:26:00 11.1, 10.3 10.76 32, 39, 41 (Avg:40)
212 Niels Lochtenberg Matta Mia Arad 16 7:30:00 11.7, 9.7 10.67 34, 44, 48 (Avg:46)
219 Robert Fenech Jessie Ima James Back L2 0:00:00 11.1, 10.9 - 32, 38, 46 (Avg:42)
268 Maurice Gray Chazar Fire Nic Ice Lame L2 0:00:00 20.1, 16.9 - 29, 47, 45 (Avg:46)
Middleweight
277 Sk Saeed BinMaktoum La Crysada 1 (BC) 3:55:00 20.1, 20.6 20.43 29, 48, 47 (Avg:47)
276 Gayle Holmes Captain's Creek Rupert 2 4:21:00 17.3, 19.5 18.39 29, 43, 49 (Avg:46)
271 Angela Head Arinya Park Nazzerin 3 5:23:00 17.3, 12.9 14.86 34, 45, 42 (Avg:43)
291 Marion Lengronne Sasam 4 5:28:00 16.9, 12.9 14.63 30, 43, 43 (Avg:43)
283 Shelley Chapman Bellarine Passion 5 6:01:00 13.2, 13.3 13.30 31, 48, 41 (Avg:44)
263 Carolyn Strahan Georgia 6 6:07:00 14.4, 11.9 13.08 32, 43, 40 (Avg:41)
292 Rosemary Skipper Country Gentleman 7 6:08:00 13.1, 12.9 13.04 37, 49, 49 (Avg:49)
242 Jess Langridge Uvinia Blue Son 8 6:25:00 12.7, 12.1 12.47 35, 43, 45 (Avg:44)
244 Kaylea Maher Meltharina M'arui 8 6:25:00 12.7, 12.1 12.47 37, 43, 45 (Avg:44)
220 Caroline Fitzgerald Lanamere Roulette 10 6:28:00 13.1, 11.7 12.37 33, 43, 42 (Avg:42)
265 Evelyn Cornell Die Kinder Spyder 11 6:36:00 12.9, 11.3 12.12 30, 36, 39 (Avg:37)
239 Renae Kuhn Splendacrest Tumbleweed 12 6:58:00 12.1, 10.9 11.48 32, 43, 45 (Avg:44)
237 Samantha Yates Bashan The Jester 12 6:58:00 12.1, 10.9 11.48 36, 47, 49 (Avg:48)
207 Debbie Edwards Agape Evezra 14 6:59:00 12.7, 10.3 11.46 31, 50, 46 (Avg:48)
226 Priscilla Coates Mingara Samson 15 7:14:00 11.1, 10.9 11.06 29, 39, 39 (Avg:39)
225 Sandy Hose Meltharina Mercury 15 7:14:00 11.1, 10.9 11.06 27, 39, 47 (Avg:43)
275 Chelsea Moore Mt Eerwah Nikita 17 7:17:00 11.1, 10.8 10.98 32, 43, 42 (Avg:42)
216 Carmel Trevorrow Al Shifa Kasaba 18 7:26:00 11.1, 10.3 10.76 36, 39, 43 (Avg:41)
230 Anne Barlow Sa-har Shetari 19 7:30:00 11.0, 10.3 10.67 36, 44, 51 (Avg:47)
213 Ruth Dixon El Romero 20 8:36:00 9.5, 9.0 9.30 30, 38, 41 (Avg:39)
218 Jackie Gilks Reid River Reflectshine 21 8:41:00 11.0, 7.9 9.21 38, 40, 50 (Avg:45)
288 Olga Bartlett Cingala Royalle Lame L2 0:00:00 9.5, 8.1 - 37, 40, 45 (Avg:42)
286 Gerard Bou Splendacrest Sayirah Lame L2 0:00:00 17.2, 17.3 - 33, 42, 44 (Avg:43)
231 Graysen Clarke Melcot Bella Lame L2 0:00:00 11.1, 8.6 - 28, 36, 40 (Avg:38)
289 Scott Hill Kalkadoon Kismet Lame L2 0:00:00 14.8, 12.9 - 36, 41, 43 (Avg:42)
210 Lisa Sanchez Lisana Con Man Lame L2 0:00:00 9.4, 8.7 - 38, 39, 40 (Avg:39)
221 Angela Waldock Everon Park Calect Heart Rate L2 0:00:00 11.1, 10.9 - 31, 40, 84 (Avg:62)
202 Cathie Bruce Steel Poppy Dali Lame L1 0:00:00 11.1 - 25, 36 (Avg:36)
229 Danielle Cullen Matta Mia Kizil On track L1 0:00:00 - - 30, 39 (Avg:39)
257 Debbie Forsdike Bacchante Valentina Metabolics L1 0:00:00 22.8 - 30, 44 (Avg:44)
274 Robyn Pembroke Mt Eerwah Silver Arafina Lame L1 0:00:00 11.1 - 27, 37 (Avg:37)
Lightweight
287 Jeanna Maher Red Gum Trinket 1 (BC) 4:37:00 18.0, 16.6 17.33 38, 40, 45 (Avg:42)
253 Christine Christie Reg 2 5:19:00 17.9, 12.9 15.05 37, 43, 39 (Avg:41)
272 Sally Genninges Chazar Bandana 3 5:28:00 16.9, 12.9 14.63 30, 48, 51 (Avg:49)
252 Anne Jones Tongarra Red Cloud 4 5:47:00 14.8, 12.9 13.83 33, 37, 41 (Avg:39)
281 Judy Battams El Rebel Stimulator 5 5:50:00 18.0, 11.0 13.71 34, 52, 53 (Avg:52)
228 Sue Sutcliffe De Sharvell Sharkeem 6 6:09:00 13.1, 12.9 13.01 36, 44, 48 (Avg:46)
204 Karen Fields Jayhal Shah 7 6:12:00 12.9, 12.9 12.90 29, 44, 47 (Avg:45)
236 Clio Rauch Kalkadoon Kauri 8 6:25:00 12.6, 12.2 12.47 43, 40, 43 (Avg:41)
201 Sonya Ryan Kholonial Amigo 9 6:28:00 13.1, 11.6 12.37 25, 43, 47 (Avg:45)
282 Bec Miller Lenny 10 6:32:00 12.3, 12.1 12.24 35, 43, 47 (Avg:45)
264 Karen Hill Safira Myth 11 6:36:00 12.9, 11.3 12.12 35, 39, 44 (Avg:41)
243 Emma Shone Brookleigh Abacus 12 7:06:00 12.7, 10.0 11.27 36, 42, 44 (Avg:43)
241 Jean Walsh Brookleigh Bravo 12 7:06:00 12.7, 10.0 11.27 42, 40, 53 (Avg:46)
222 Patrice Fenech Indiana Allias 14 7:14:00 11.1, 10.9 11.06 33, 43, 41 (Avg:42)
269 Cathy Herve Hilbrae Maxine 15 7:30:00 11.0, 10.3 10.67 34, 40, 41 (Avg:40)
255 Bobbi Lochtenberg Matta Mia Dollar 15 7:30:00 11.7, 9.7 10.67 36, 49, 46 (Avg:47)
224 Mary Sims Bonnie Rose 17 8:11:00 9.3, 10.2 9.78 33, 44, 50 (Avg:47)
214 Robin Young Melawondi 18 8:41:00 10.5, 8.1 9.21 31, 36, 44 (Avg:40)
227 Janelle Taylor Glenewan Scout 19 8:48:00 9.4, 8.7 9.09 26, 40, 42 (Avg:41)
259 Cindy Harris Zanabah Park Shylock Lame L2 0:00:00 19.8, 18.7 - 38, 47, 46 (Avg:46)
217 Leigh Rich Leondon Maritz Lame L2 0:00:00 11.0, 7.9 - 34, 38, 39 (Avg:38)
267 Nicole Barker Hadji of Damascus On track L1 0:00:00 - - 32, 38 (Avg:38)
273 Carla Jones Mt Eerwah Anastazia Lame L1 0:00:00 11.1 - 31, 41 (Avg:41)
262 Susan Kelman Jayhal Moonlight On track L1 0:00:00 - - 29, 35 (Avg:35)
Junior
254 Lainie Zischke Glenewan Sprite 1 (BC) 4:50:00 15.9, 17.1 16.55 33, 39, 43 (Avg:41)
251 Jade Vergis Meltharina Maralyc 2 5:47:00 14.8, 12.9 13.83 33, 40, 46 (Avg:43)
285 Shania Chapman Sahala Astronomer 3 6:01:00 13.2, 13.3 13.30 36, 42, 49 (Avg:45)
270 Timothy Sutcliffe Talbarear Rapier 4 6:09:00 13.1, 12.9 13.01 44, 43, 49 (Avg:46)
238 Tarnia Kittel Razorback Love Song 5 6:25:00 12.6, 12.2 12.47 34, 37, 44 (Avg:40)
235 Renae Chapman Sarim Natalia 6 6:30:00 12.9, 11.7 12.31 35, 43, 46 (Avg:44)
205 Cindy Williams Luack Kayla 7 6:36:00 12.9, 11.3 12.12 26, 43, 48 (Avg:45)
233 Jessyca Dakin Larabi Sid Simba'ar 8 6:50:00 12.1, 11.3 11.71 30, 43, 48 (Avg:45)
234 Britteny Price Jael 8 6:50:00 12.1, 11.3 11.71 31, 37, 46 (Avg:41)
232 Jasmine Shields Kazoo Park Bobby Boy 8 6:50:00 12.1, 11.3 11.71 32, 40, 47 (Avg:43)
261 Amaya Thomas Kilkivan Msalute 11 7:14:00 11.1, 10.9 11.06 35, 44, 44 (Avg:44)
280 David Anderson Jnr Tobinlee Ishmale Lame L2 0:00:00 20.1, 18.4 - 32, 39, 46 (Avg:42)
223 Candice Gurtner Rodborough Cisko Heart Rate L2 0:00:00 11.1, 9.0 - 37, 46, 66 (Avg:56)